This is the latest recevied weather packets stored in our database for station/object KI4BIY. If no packets are shown the sender has not sent any weather packets the latest 1 day(s).
| Time | Temp. | Humidity | Pressure | Rain* | Wind** | Luminosity | Snow |
|---|---|---|---|---|---|---|---|
| 1778090328 | 12.22° C | 99% | 1014 hPa | 0 mm | - | 117 W/m² | - |
| 1778088813 | 11.67° C | 99% | 1014 hPa | 0 mm | - | 211 W/m² | - |
| 1778087904 | 11.67° C | 99% | 1014 hPa | 0 mm | - | 249 W/m² | - |
| 1778087299 | 11.11° C | 99% | 1013.7 hPa | 0 mm | - | 208 W/m² | - |
| 1778086391 | 11.11° C | 99% | 1014.5 hPa | 0 mm | - | 94 W/m² | - |
| 1778084872 | 11.11° C | 99% | 1013.6 hPa | 0 mm | - | 59 W/m² | - |
| 1778083662 | 11.11° C | 99% | 1013.8 hPa | 0 mm | - | 85 W/m² | - |
| 1778081015 | 10° C | 99% | 1013.8 hPa | 1.78 mm | - | 46 W/m² | - |
| 1778079804 | 10° C | 99% | 1014 hPa | 0 mm | - | 22 W/m² | - |
| 1778078591 | 10.56° C | 99% | 1013.6 hPa | 0 mm | - | 19 W/m² | - |
| 1778077986 | 10.56° C | 99% | 1013.5 hPa | 0 mm | - | 15 W/m² | - |
| 1778077382 | 10.56° C | 99% | 1013.8 hPa | 0 mm | - | 6 W/m² | - |
| 1778077080 | 10.56° C | 99% | 1013.3 hPa | 0 mm | - | 10 W/m² | - |
| 1778076778 | 10.56° C | 99% | 1013.1 hPa | 0 mm | - | 13 W/m² | - |
| 1778075262 | 10.56° C | 99% | 1012.6 hPa | 0 mm | - | 14 W/m² | - |
| 1778074656 | 10.56° C | 99% | 1012.9 hPa | 0 mm | - | 14 W/m² | - |
| 1778073140 | 10.56° C | 99% | 1012.4 hPa | 0 mm | - | 29 W/m² | - |
| 1778071930 | 10.56° C | 99% | 1011.8 hPa | 0 mm | - | 49 W/m² | - |
| 1778069813 | 10.56° C | 99% | 1011.1 hPa | 0 mm | - | 26 W/m² | - |
| 1778068904 | 10.56° C | 99% | 1011 hPa | 0 mm | - | 17 W/m² | - |
| 1778067997 | 10.56° C | 99% | 1010.8 hPa | 0 mm | - | 7 W/m² | - |
| 1778066182 | 10.56° C | 99% | 1009.6 hPa | 4.32 mm | - | 0 W/m² | - |
| 1778065879 | 10.56° C | 99% | 1009.9 hPa | 11.94 mm | - | 0 W/m² | - |
| 1778065274 | 10.56° C | 99% | 1011.7 hPa | 3.05 mm | - | 0 W/m² | - |
| 1778064970 | 10.56° C | 99% | 1010.4 hPa | 4.83 mm | - | 0 W/m² | - |
* Rain latest hour (hover to see other rain measurements)
** Current wind speed in m/s (hover to see current wind gust speed)